Time;durP1;ratioP1;P1;durP2;ratioP2;P2;SDS_P1;SDS_P2;PMS_P1;PMS_P2;Temp;Humidity;BMP_temperature;BMP_pressure;BME280_temperature;BME280_humidity;BME280_pressure;Samples;Min_cycle;Max_cycle;Signal;HPM_P1;HPM_P2
2023/12/16 00:02:13;;;;;;;2.27;2.13;;;22.70;59.40;;;;;;5070512;28;20432;-87
2023/12/16 00:04:40;;;;;;;1.83;1.73;;;22.70;59.40;;;;;;5070472;28;20452;-87
2023/12/16 00:07:07;;;;;;;2.33;2.13;;;22.70;59.50;;;;;;5070492;28;20543;-86
2023/12/16 00:09:34;;;;;;;2.97;2.37;;;22.70;59.40;;;;;;5070477;28;20437;-87
2023/12/16 00:12:01;;;;;;;2.27;2.07;;;22.70;59.40;;;;;;5070534;28;20511;-87
2023/12/16 00:14:27;;;;;;;2.43;2.23;;;22.70;59.50;;;;;;5071127;28;20484;-86
2023/12/16 00:16:55;;;;;;;1.93;1.67;;;22.60;59.40;;;;;;5072868;28;20438;-87
2023/12/16 00:19:22;;;;;;;2.83;1.90;;;22.60;59.50;;;;;;5076108;28;20446;-87
2023/12/16 00:21:49;;;;;;;2.20;2.00;;;22.60;59.50;;;;;;5076719;28;20561;-87
2023/12/16 00:24:16;;;;;;;2.30;1.80;;;22.60;59.50;;;;;;5076717;28;20545;-87
2023/12/16 00:26:43;;;;;;;2.53;1.90;;;22.60;59.50;;;;;;5076750;28;20441;-86
2023/12/16 00:29:09;;;;;;;2.73;1.90;;;22.60;59.50;;;;;;5076590;28;20436;-87
2023/12/16 00:31:36;;;;;;;1.60;1.50;;;22.60;59.50;;;;;;5076644;28;20459;-87
2023/12/16 00:34:05;;;;;;;2.53;2.30;;;22.70;59.60;;;;;;5076382;28;20458;-86
2023/12/16 00:36:32;;;;;;;2.20;2.10;;;22.60;59.50;;;;;;5076615;28;20802;-87
2023/12/16 00:38:59;;;;;;;1.90;1.70;;;22.60;59.50;;;;;;5076497;28;20436;-86
2023/12/16 00:41:26;;;;;;;1.80;1.70;;;22.50;59.50;;;;;;5076529;28;20436;-87
2023/12/16 00:43:53;;;;;;;2.43;2.27;;;22.50;59.50;;;;;;5076261;28;20904;-87
2023/12/16 00:46:20;;;;;;;2.03;1.90;;;22.50;59.50;;;;;;5076325;28;20428;-86
2023/12/16 00:48:46;;;;;;;2.30;2.10;;;22.50;60.10;;;;;;5076251;28;20438;-86
2023/12/16 00:51:15;;;;;;;2.03;1.90;;;22.50;59.50;;;;;;5076269;28;20435;-87
2023/12/16 00:53:41;;;;;;;2.30;2.10;;;22.50;59.50;;;;;;5076110;28;20436;-86
2023/12/16 00:56:09;;;;;;;2.07;1.87;;;22.50;59.60;;;;;;5076113;28;20570;-87
2023/12/16 00:58:36;;;;;;;2.60;2.40;;;22.50;59.60;;;;;;5076227;28;20432;-87
2023/12/16 01:01:03;;;;;;;2.40;1.90;;;22.50;59.60;;;;;;5076086;28;20432;-86
2023/12/16 01:03:30;;;;;;;2.47;2.27;;;22.40;59.50;;;;;;5075833;28;20835;-86
2023/12/16 01:05:56;;;;;;;1.83;1.70;;;22.50;59.70;;;;;;5076014;28;20932;-86
2023/12/16 01:08:24;;;;;;;2.30;1.93;;;22.40;59.60;;;;;;5075834;28;20829;-86
2023/12/16 01:10:51;;;;;;;2.40;2.20;;;22.40;59.60;;;;;;5075858;28;20513;-86
2023/12/16 01:13:18;;;;;;;2.40;2.20;;;22.40;59.60;;;;;;5075730;28;20432;-86
2023/12/16 01:15:45;;;;;;;2.80;1.87;;;22.40;59.60;;;;;;5075214;28;20563;-86
2023/12/16 01:18:12;;;;;;;1.80;1.70;;;22.40;59.60;;;;;;5075722;28;20440;-86
2023/12/16 01:20:39;;;;;;;2.47;2.27;;;22.40;60.40;;;;;;5075551;28;20444;-93
2023/12/16 01:23:05;;;;;;;1.50;1.40;;;22.40;59.70;;;;;;5075506;28;20478;-87
2023/12/16 01:25:34;;;;;;;3.30;1.83;;;22.40;59.80;;;;;;5074555;28;20451;-86
2023/12/16 01:28:00;;;;;;;2.37;2.13;;;22.40;59.80;;;;;;5076090;28;20436;-86
2023/12/16 01:30:27;;;;;;;2.10;1.90;;;22.40;59.90;;;;;;5075078;28;20444;-86
2023/12/16 01:32:54;;;;;;;1.50;1.40;;;22.50;60.70;;;;;;5075965;28;20444;-86
2023/12/16 01:35:21;;;;;;;2.20;2.00;;;22.40;59.80;;;;;;5074494;28;20484;-86
2023/12/16 01:37:48;;;;;;;2.10;1.90;;;22.40;59.80;;;;;;5076075;28;20448;-86
2023/12/16 01:40:15;;;;;;;2.00;1.80;;;22.40;59.80;;;;;;5075795;28;20539;-86
2023/12/16 01:42:46;;;;;;;2.10;1.90;;;22.40;59.80;;;;;;5075715;28;20432;-86
2023/12/16 01:45:13;;;;;;;1.83;1.73;;;22.40;59.70;;;;;;5075474;28;20927;-86
2023/12/16 01:47:40;;;;;;;2.20;1.83;;;22.40;59.70;;;;;;5075309;28;20922;-87
2023/12/16 01:50:08;;;;;;;2.27;1.70;;;22.40;59.80;;;;;;5075448;28;20444;-87
2023/12/16 01:52:35;;;;;;;2.50;2.30;;;22.40;59.80;;;;;;5075508;28;20797;-86
2023/12/16 01:55:02;;;;;;;2.10;2.00;;;22.40;59.70;;;;;;5075293;28;20804;-86
2023/12/16 01:57:29;;;;;;;2.20;1.93;;;22.40;59.70;;;;;;5075415;28;20811;-86
2023/12/16 01:59:57;;;;;;;2.20;1.90;;;22.40;59.70;;;;;;5075059;28;20437;-86
2023/12/16 02:02:26;;;;;;;1.50;1.40;;;22.50;59.70;;;;;;5075466;28;20527;-86
2023/12/16 02:04:53;;;;;;;1.87;1.77;;;22.40;59.60;;;;;;5075053;28;20872;-87
2023/12/16 02:07:20;;;;;;;2.23;2.03;;;22.40;59.60;;;;;;5075020;28;20467;-86
2023/12/16 02:09:48;;;;;;;2.00;1.73;;;22.40;59.60;;;;;;5075003;28;20535;-86
2023/12/16 02:12:15;;;;;;;2.93;2.00;;;22.40;59.60;;;;;;5075261;28;20854;-86
2023/12/16 02:14:42;;;;;;;1.80;1.70;;;22.50;59.70;;;;;;5075062;28;20476;-86
2023/12/16 02:17:10;;;;;;;2.23;2.03;;;22.40;59.70;;;;;;5074846;28;20535;-86
2023/12/16 02:19:37;;;;;;;2.43;2.13;;;22.40;59.70;;;;;;5074836;28;20443;-87
2023/12/16 02:22:04;;;;;;;2.60;2.07;;;22.40;59.60;;;;;;5066492;28;20459;-86
2023/12/16 02:24:36;;;;;;;1.90;1.60;;;22.40;59.50;;;;;;5054866;28;20440;-86
2023/12/16 02:27:04;;;;;;;1.90;1.80;;;22.40;59.70;;;;;;5055006;28;20532;-86
2023/12/16 02:29:30;;;;;;;2.20;1.73;;;22.40;59.70;;;;;;5054769;28;20437;-86
2023/12/16 02:31:57;;;;;;;1.90;1.60;;;22.40;59.70;;;;;;5054565;28;20441;-86
2023/12/16 02:34:24;;;;;;;1.97;1.60;;;22.40;59.60;;;;;;5054444;28;20465;-85
2023/12/16 02:36:51;;;;;;;1.70;1.60;;;22.40;59.60;;;;;;5054765;28;20972;-86
2023/12/16 02:39:17;;;;;;;2.17;1.53;;;22.40;59.70;;;;;;5054530;28;20442;-86
2023/12/16 02:41:46;;;;;;;2.53;1.80;;;22.40;59.70;;;;;;5072626;28;20443;-86
2023/12/16 02:44:12;;;;;;;1.60;1.50;;;22.40;59.60;;;;;;5074335;28;20494;-86
2023/12/16 02:46:39;;;;;;;1.70;1.60;;;22.40;59.60;;;;;;5074429;28;20452;-86
2023/12/16 02:49:06;;;;;;;2.03;1.83;;;22.40;59.70;;;;;;5074172;28;20443;-86
2023/12/16 02:51:33;;;;;;;2.10;2.00;;;22.40;59.70;;;;;;5074251;28;20536;-86
2023/12/16 02:53:59;;;;;;;2.40;1.90;;;22.40;59.60;;;;;;5073976;28;20994;-87
2023/12/16 02:56:26;;;;;;;2.27;2.07;;;22.40;59.60;;;;;;5074250;28;20514;-87
2023/12/16 02:58:54;;;;;;;2.10;1.80;;;22.40;59.70;;;;;;5074131;28;20533;-86
2023/12/16 03:01:21;;;;;;;1.87;1.77;;;22.50;59.70;;;;;;5073987;28;20800;-86
2023/12/16 03:03:48;;;;;;;2.03;1.80;;;22.40;59.60;;;;;;5074382;28;20464;-86
2023/12/16 03:06:15;;;;;;;1.93;1.70;;;22.50;59.80;;;;;;5074137;28;21019;-86
2023/12/16 03:08:42;;;;;;;1.63;1.53;;;22.40;59.60;;;;;;5073832;28;20468;-86
2023/12/16 03:11:08;;;;;;;1.93;1.70;;;22.40;59.60;;;;;;5073755;28;21030;-86
2023/12/16 03:13:35;;;;;;;2.03;1.70;;;22.40;59.60;;;;;;5074060;28;20443;-86
2023/12/16 03:16:04;;;;;;;2.50;1.80;;;22.40;59.60;;;;;;5073819;28;20567;-86
2023/12/16 03:18:31;;;;;;;2.20;1.50;;;22.40;59.60;;;;;;5073932;28;20435;-86
2023/12/16 03:20:58;;;;;;;2.37;1.90;;;22.40;59.60;;;;;;5073791;28;20432;-86
2023/12/16 03:23:25;;;;;;;2.10;1.70;;;22.40;59.50;;;;;;5073732;28;20440;-86
2023/12/16 03:25:51;;;;;;;1.60;1.50;;;22.40;59.50;;;;;;5073925;28;20436;-86
2023/12/16 03:28:18;;;;;;;1.73;1.63;;;22.40;59.50;;;;;;5073491;28;20436;-86
2023/12/16 03:30:45;;;;;;;1.50;1.40;;;22.40;59.50;;;;;;5073694;28;20523;-86
2023/12/16 03:33:13;;;;;;;1.53;1.43;;;22.40;59.50;;;;;;5073615;28;20436;-86
2023/12/16 03:35:40;;;;;;;2.00;1.80;;;22.40;59.50;;;;;;5073542;28;20476;-86
2023/12/16 03:38:07;;;;;;;1.63;1.53;;;22.40;59.50;;;;;;5073761;28;20823;-86
2023/12/16 03:40:33;;;;;;;2.27;1.73;;;22.40;59.50;;;;;;5073833;28;20436;-86
2023/12/16 03:43:00;;;;;;;1.83;1.50;;;22.50;59.60;;;;;;5073260;28;20437;-86
2023/12/16 03:45:27;;;;;;;2.50;1.30;;;22.40;59.50;;;;;;5073528;28;20452;-86
2023/12/16 03:47:54;;;;;;;1.63;1.53;;;22.40;59.50;;;;;;5073419;28;20924;-86
2023/12/16 03:50:22;;;;;;;1.90;1.77;;;22.40;59.50;;;;;;5073279;28;20435;-86
2023/12/16 03:52:50;;;;;;;2.67;1.60;;;22.40;59.50;;;;;;5072947;28;20862;-86
2023/12/16 03:55:17;;;;;;;1.53;1.43;;;22.40;59.40;;;;;;5073226;28;20475;-86
2023/12/16 03:57:43;;;;;;;2.00;1.50;;;22.40;59.40;;;;;;5073167;28;20444;-86
2023/12/16 04:00:11;;;;;;;1.90;1.70;;;22.40;59.40;;;;;;5073244;28;20531;-86
2023/12/16 04:02:38;;;;;;;1.40;1.20;;;22.40;59.30;;;;;;5073086;28;20434;-86
2023/12/16 04:05:06;;;;;;;1.90;1.80;;;22.40;59.40;;;;;;5073205;28;20456;-86
2023/12/16 04:07:35;;;;;;;1.70;1.60;;;22.40;59.40;;;;;;5072979;28;20555;-86
2023/12/16 04:10:02;;;;;;;1.60;1.30;;;22.40;59.30;;;;;;5072925;28;20473;-86
2023/12/16 04:12:29;;;;;;;1.73;1.60;;;22.40;59.30;;;;;;5072968;28;20444;-86
2023/12/16 04:14:55;;;;;;;2.37;1.70;;;22.40;59.30;;;;;;5073220;28;20587;-86
2023/12/16 04:17:22;;;;;;;1.53;1.43;;;22.40;59.30;;;;;;5073166;28;20480;-86
2023/12/16 04:19:53;;;;;;;1.60;1.50;;;22.40;59.40;;;;;;5072974;28;20491;-86
2023/12/16 04:22:21;;;;;;;1.67;1.57;;;22.40;59.30;;;;;;5072844;28;20432;-86
2023/12/16 04:24:50;;;;;;;1.90;1.70;;;22.40;59.30;;;;;;5073171;28;20440;-86
2023/12/16 04:27:18;;;;;;;1.77;1.63;;;22.40;59.40;;;;;;5073199;28;20452;-86
2023/12/16 04:29:44;;;;;;;2.00;1.80;;;22.40;59.30;;;;;;5073251;28;20440;-86
2023/12/16 04:32:11;;;;;;;2.37;1.60;;;22.40;59.30;;;;;;5072916;28;20443;-86
2023/12/16 04:34:38;;;;;;;1.57;1.40;;;22.50;59.40;;;;;;5072751;28;20474;-86
2023/12/16 04:37:05;;;;;;;3.83;1.50;;;22.40;59.40;;;;;;5072748;28;20480;-86
2023/12/16 04:39:31;;;;;;;2.60;1.70;;;22.40;59.30;;;;;;5073129;28;20450;-86
2023/12/16 04:42:00;;;;;;;1.83;1.70;;;22.40;59.40;;;;;;5072775;28;20432;-87
2023/12/16 04:44:26;;;;;;;2.17;1.60;;;22.40;59.40;;;;;;5072975;28;20443;-86
2023/12/16 04:46:53;;;;;;;2.13;1.50;;;22.50;59.50;;;;;;5072655;28;20443;-86
2023/12/16 04:49:20;;;;;;;2.03;1.93;;;22.40;59.20;;;;;;5072824;28;20443;-86
2023/12/16 04:51:47;;;;;;;2.13;1.33;;;22.50;59.40;;;;;;5072621;28;20446;-86
2023/12/16 04:54:13;;;;;;;1.80;1.70;;;22.40;59.20;;;;;;5072812;28;20447;-86
2023/12/16 04:56:40;;;;;;;1.57;1.40;;;22.40;59.30;;;;;;5072601;28;20484;-88
2023/12/16 04:59:08;;;;;;;1.60;1.40;;;22.40;59.30;;;;;;5072729;28;20459;-86
2023/12/16 05:01:35;;;;;;;1.60;1.40;;;22.40;59.30;;;;;;5072614;28;20519;-86
2023/12/16 05:04:02;;;;;;;1.30;1.20;;;22.50;59.30;;;;;;5072680;28;20474;-87
2023/12/16 05:06:29;;;;;;;1.47;1.33;;;22.40;59.20;;;;;;5075387;28;20432;-86
2023/12/16 05:08:55;;;;;;;1.50;1.33;;;22.40;59.20;;;;;;5076452;28;20425;-86
2023/12/16 05:11:22;;;;;;;1.63;1.53;;;22.50;59.30;;;;;;5076116;28;20438;-89
2023/12/16 05:13:49;;;;;;;1.40;1.23;;;22.50;59.10;;;;;;5076043;28;20443;-86
2023/12/16 05:16:19;;;;;;;1.90;1.50;;;22.50;59.10;;;;;;5076254;28;20475;-86
2023/12/16 05:18:46;;;;;;;2.57;1.90;;;22.50;59.20;;;;;;5076199;28;20439;-86
2023/12/16 05:21:13;;;;;;;1.90;1.50;;;22.50;59.60;;;;;;5075798;28;20945;-86
2023/12/16 05:23:40;;;;;;;1.43;1.30;;;22.50;59.10;;;;;;5075885;28;20440;-86
2023/12/16 05:26:07;;;;;;;1.53;1.40;;;22.50;59.10;;;;;;5076118;28;20437;-86
2023/12/16 05:28:33;;;;;;;1.47;1.37;;;22.50;59.00;;;;;;5075905;28;20437;-86
2023/12/16 05:31:00;;;;;;;2.40;1.20;;;22.50;59.10;;;;;;5075928;28;20428;-86
2023/12/16 05:33:29;;;;;;;1.90;1.80;;;22.50;59.10;;;;;;5075693;28;20534;-86
2023/12/16 05:35:56;;;;;;;1.73;1.60;;;22.50;59.10;;;;;;5075564;28;20479;-86
2023/12/16 05:38:23;;;;;;;1.90;1.43;;;22.50;59.00;;;;;;5075576;28;20486;-86
2023/12/16 05:40:50;;;;;;;1.87;1.63;;;22.50;59.10;;;;;;5075718;28;20437;-86
2023/12/16 05:43:16;;;;;;;2.00;1.70;;;22.60;58.90;;;;;;5075386;28;20524;-86
2023/12/16 05:45:43;;;;;;;2.37;1.70;;;22.60;59.00;;;;;;5075482;28;20437;-86
2023/12/16 05:48:11;;;;;;;2.23;1.90;;;22.60;59.00;;;;;;5075420;28;20429;-86
2023/12/16 05:50:40;;;;;;;1.40;1.30;;;22.60;59.00;;;;;;5075700;28;20421;-86
2023/12/16 05:53:08;;;;;;;1.50;1.40;;;22.60;58.90;;;;;;5075349;28;20915;-87
2023/12/16 05:55:34;;;;;;;1.20;1.00;;;22.60;58.90;;;;;;5075441;28;20445;-86
2023/12/16 05:58:01;;;;;;;1.60;1.47;;;22.60;58.90;;;;;;5075339;28;20531;-86
2023/12/16 06:00:28;;;;;;;1.70;1.27;;;22.60;58.90;;;;;;5075293;28;20440;-86
2023/12/16 06:02:55;;;;;;;2.00;1.30;;;22.70;58.80;;;;;;5075493;28;20802;-86
2023/12/16 06:05:22;;;;;;;1.53;1.43;;;22.60;58.90;;;;;;5075121;28;20432;-87
2023/12/16 06:07:50;;;;;;;1.40;1.30;;;22.60;58.80;;;;;;5074935;28;20476;-86
2023/12/16 06:10:17;;;;;;;2.17;1.60;;;22.60;58.80;;;;;;5074990;28;20433;-86
2023/12/16 06:12:44;;;;;;;1.30;1.20;;;22.60;58.90;;;;;;5074968;28;20528;-86
2023/12/16 06:15:11;;;;;;;1.83;1.33;;;22.60;58.80;;;;;;5075066;28;20463;-86
2023/12/16 06:17:38;;;;;;;1.50;1.40;;;22.60;58.80;;;;;;5074935;28;21013;-86
2023/12/16 06:20:06;;;;;;;1.20;1.10;;;22.60;58.80;;;;;;5075162;28;20436;-90
2023/12/16 06:22:33;;;;;;;1.70;1.57;;;22.50;58.80;;;;;;5074960;28;21226;-86
2023/12/16 06:25:01;;;;;;;2.80;1.50;;;22.60;58.80;;;;;;5074892;28;20436;-86
2023/12/16 06:27:30;;;;;;;1.77;1.40;;;22.60;58.90;;;;;;5074550;28;20445;-86
2023/12/16 06:29:57;;;;;;;1.20;1.10;;;22.60;59.50;;;;;;5075693;28;20451;-86
2023/12/16 06:32:24;;;;;;;4.13;1.40;;;22.60;58.80;;;;;;5074777;28;20983;-86
2023/12/16 06:34:51;;;;;;;2.50;1.60;;;22.60;58.80;;;;;;5074561;28;20959;-86
2023/12/16 06:37:18;;;;;;;1.60;1.33;;;22.60;58.80;;;;;;5074704;28;20519;-86
2023/12/16 06:39:44;;;;;;;2.57;1.50;;;22.60;58.70;;;;;;5074721;28;20791;-86
2023/12/16 06:42:13;;;;;;;1.60;1.50;;;22.60;58.80;;;;;;5074556;28;20440;-86
2023/12/16 06:44:39;;;;;;;1.40;1.30;;;22.60;58.80;;;;;;5074343;28;20470;-86
2023/12/16 06:47:06;;;;;;;1.47;1.10;;;22.70;58.80;;;;;;5074481;28;20527;-86
2023/12/16 06:49:33;;;;;;;1.73;1.47;;;22.60;58.70;;;;;;5074343;28;20452;-86
2023/12/16 06:52:00;;;;;;;2.63;1.40;;;22.60;58.60;;;;;;5074468;28;20531;-86
2023/12/16 06:54:27;;;;;;;1.50;1.40;;;22.60;58.70;;;;;;5074573;28;20440;-86
2023/12/16 06:56:53;;;;;;;1.30;1.20;;;22.60;59.20;;;;;;5074138;28;20967;-86
2023/12/16 06:59:22;;;;;;;1.70;1.33;;;22.60;58.70;;;;;;5074413;28;20451;-90
2023/12/16 07:01:48;;;;;;;1.60;1.37;;;22.60;58.60;;;;;;5073995;28;20767;-86
2023/12/16 07:04:16;;;;;;;1.53;1.00;;;22.60;58.70;;;;;;5073802;28;20466;-86
2023/12/16 07:06:42;;;;;;;1.40;1.10;;;22.70;58.70;;;;;;5073527;28;20470;-86
2023/12/16 07:09:09;;;;;;;1.43;1.13;;;22.70;58.60;;;;;;5074162;28;20424;-91
2023/12/16 07:11:36;;;;;;;1.47;1.37;;;22.60;58.50;;;;;;5073709;28;20436;-86
2023/12/16 07:14:03;;;;;;;1.83;1.40;;;22.60;58.60;;;;;;5073969;28;20428;-86
2023/12/16 07:16:31;;;;;;;1.70;1.17;;;22.70;58.60;;;;;;5073651;28;20484;-86
2023/12/16 07:18:58;;;;;;;1.50;1.20;;;22.70;58.60;;;;;;5073957;28;20864;-91
2023/12/16 07:21:27;;;;;;;1.40;1.30;;;22.70;58.60;;;;;;5073864;28;20846;-86
2023/12/16 07:23:54;;;;;;;1.30;1.20;;;22.70;58.50;;;;;;5073532;28;20444;-86
2023/12/16 07:26:21;;;;;;;1.97;1.57;;;22.70;58.50;;;;;;5073471;28;20503;-87
2023/12/16 07:28:50;;;;;;;1.73;1.40;;;22.70;58.60;;;;;;5073168;28;20444;-86
2023/12/16 07:31:16;;;;;;;1.57;1.20;;;22.70;58.60;;;;;;5073732;28;20483;-86
2023/12/16 07:33:44;;;;;;;1.40;1.30;;;22.70;58.60;;;;;;5073417;28;20461;-87
2023/12/16 07:36:12;;;;;;;1.80;1.33;;;22.70;58.50;;;;;;5073493;28;20433;-86
2023/12/16 07:38:38;;;;;;;4.17;1.10;;;22.70;58.50;;;;;;5073567;28;20467;-86
2023/12/16 07:41:05;;;;;;;1.80;1.40;;;22.70;58.50;;;;;;5073651;28;20527;-86
2023/12/16 07:43:32;;;;;;;2.40;1.33;;;22.70;58.50;;;;;;5073545;28;20795;-86
2023/12/16 07:45:59;;;;;;;2.53;1.50;;;22.70;58.50;;;;;;5073260;28;20432;-86
2023/12/16 07:48:25;;;;;;;2.17;1.30;;;22.70;58.40;;;;;;5073686;28;20538;-87
2023/12/16 07:50:54;;;;;;;2.07;1.13;;;22.70;58.50;;;;;;5073446;28;20429;-91
2023/12/16 07:53:21;;;;;;;1.77;1.20;;;22.70;58.50;;;;;;5073170;28;20443;-86
2023/12/16 07:55:49;;;;;;;1.30;1.20;;;22.80;58.60;;;;;;5073290;28;20467;-87
2023/12/16 07:58:16;;;;;;;1.50;1.33;;;22.70;58.50;;;;;;5073744;28;20903;-86
2023/12/16 08:00:42;;;;;;;1.53;1.30;;;22.70;58.50;;;;;;5073624;28;20928;-86
2023/12/16 08:03:09;;;;;;;1.57;1.30;;;22.70;58.40;;;;;;5073109;28;20468;-86
2023/12/16 08:05:36;;;;;;;2.10;1.20;;;22.70;58.50;;;;;;5073092;28;20520;-86
2023/12/16 08:08:05;;;;;;;1.37;1.13;;;22.70;58.50;;;;;;5072844;28;21021;-86
2023/12/16 08:10:31;;;;;;;1.87;1.50;;;22.70;58.60;;;;;;5073208;28;20428;-86
2023/12/16 08:12:58;;;;;;;2.63;1.23;;;22.70;58.50;;;;;;5073319;28;20451;-86
2023/12/16 08:15:25;;;;;;;1.47;1.37;;;22.70;58.60;;;;;;5073119;28;20807;-86
2023/12/16 08:17:52;;;;;;;1.70;1.30;;;22.60;58.50;;;;;;5073164;28;20487;-87
2023/12/16 08:20:19;;;;;;;2.17;1.60;;;22.70;58.70;;;;;;5072600;28;20528;-86
2023/12/16 08:22:45;;;;;;;2.87;1.50;;;22.70;58.50;;;;;;5073088;28;20763;-91
2023/12/16 08:25:15;;;;;;;1.70;1.40;;;22.70;58.50;;;;;;5073026;28;20523;-88
2023/12/16 08:27:43;;;;;;;1.80;1.60;;;22.70;58.20;;;;;;5073073;28;20539;-88
2023/12/16 08:30:13;;;;;;;1.40;1.20;;;22.70;58.10;;;;;;5071274;28;20634;-86
2023/12/16 08:32:39;;;;;;;2.30;1.43;;;22.70;58.20;;;;;;5072575;28;20451;-87
2023/12/16 08:35:07;;;;;;;2.20;1.60;;;22.70;58.20;;;;;;5072920;28;20460;-85
2023/12/16 08:37:33;;;;;;;1.67;1.20;;;22.70;58.10;;;;;;5071070;28;20488;-86
2023/12/16 08:40:00;;;;;;;4.83;1.30;;;22.70;58.00;;;;;;5072575;28;20440;-86
2023/12/16 08:42:28;;;;;;;3.90;1.20;;;22.70;58.10;;;;;;5075735;28;20459;-86
2023/12/16 08:44:55;;;;;;;1.50;1.27;;;22.70;58.30;;;;;;5074122;28;20506;-86
2023/12/16 08:47:22;;;;;;;1.20;1.10;;;22.70;58.30;;;;;;5074256;28;20877;-86
2023/12/16 08:49:49;;;;;;;1.27;1.17;;;22.70;58.30;;;;;;5073980;28;20436;-86
2023/12/16 08:52:16;;;;;;;2.03;1.13;;;22.70;58.30;;;;;;5074053;28;20428;-86
2023/12/16 08:54:42;;;;;;;1.80;1.40;;;22.80;58.30;;;;;;5074579;28;20806;-86
2023/12/16 08:57:09;;;;;;;2.47;1.13;;;22.80;58.30;;;;;;5074595;28;20487;-86
2023/12/16 08:59:37;;;;;;;2.33;1.60;;;22.80;58.30;;;;;;5074462;28;20441;-86
2023/12/16 09:02:05;;;;;;;1.50;1.07;;;22.90;58.20;;;;;;5076259;28;20924;-86
2023/12/16 09:04:32;;;;;;;1.47;1.20;;;22.90;58.30;;;;;;5074921;28;20462;-85
2023/12/16 09:06:59;;;;;;;1.93;1.10;;;22.90;58.40;;;;;;5075731;28;20472;-85
2023/12/16 09:09:26;;;;;;;3.60;1.40;;;23.00;58.40;;;;;;5076100;28;20466;-85
2023/12/16 09:11:53;;;;;;;1.70;1.47;;;22.90;58.40;;;;;;5076060;28;20501;-86
2023/12/16 09:14:20;;;;;;;8.00;1.50;;;22.90;58.30;;;;;;5075958;28;20428;-86
2023/12/16 09:16:48;;;;;;;2.60;1.07;;;22.90;58.90;;;;;;5075936;28;20439;-85
2023/12/16 09:19:15;;;;;;;2.10;1.27;;;23.00;58.40;;;;;;5076543;28;20435;-86
2023/12/16 09:21:42;;;;;;;1.87;1.30;;;23.00;58.50;;;;;;5075973;28;20443;-85
2023/12/16 09:24:10;;;;;;;2.43;1.37;;;23.00;58.50;;;;;;5075686;28;20531;-86
2023/12/16 09:26:37;;;;;;;2.23;1.50;;;23.00;58.50;;;;;;5075668;28;20438;-85
2023/12/16 09:29:05;;;;;;;6.83;2.00;;;23.00;58.60;;;;;;5076043;28;20528;-86
2023/12/16 09:31:32;;;;;;;1.83;1.37;;;22.90;59.10;;;;;;5076004;28;20523;-85
2023/12/16 09:34:00;;;;;;;2.80;1.60;;;23.00;58.60;;;;;;5075784;28;20508;-86
2023/12/16 09:36:27;;;;;;;2.60;1.47;;;23.00;58.60;;;;;;5075825;28;20460;-86
2023/12/16 09:38:54;;;;;;;2.80;1.33;;;23.00;58.60;;;;;;5075593;28;20983;-88
2023/12/16 09:41:23;;;;;;;1.63;1.20;;;23.00;58.60;;;;;;5075760;28;20438;-86
2023/12/16 09:43:53;;;;;;;2.27;1.40;;;23.00;58.60;;;;;;5075680;28;20944;-86
2023/12/16 09:46:21;;;;;;;1.73;1.30;;;23.10;58.70;;;;;;5075509;28;20501;-91
2023/12/16 09:48:48;;;;;;;2.70;1.30;;;23.10;58.80;;;;;;5075462;28;20436;-87
2023/12/16 09:51:17;;;;;;;2.30;1.90;;;23.10;58.80;;;;;;5075317;28;20441;-87
2023/12/16 09:53:44;;;;;;;2.10;1.30;;;23.20;58.90;;;;;;5075682;28;20444;-91
2023/12/16 09:56:11;;;;;;;1.70;1.13;;;23.20;58.90;;;;;;5075579;28;20439;-91
2023/12/16 09:58:42;;;;;;;2.30;1.30;;;23.20;59.00;;;;;;5075474;28;20488;-85
2023/12/16 10:01:09;;;;;;;1.87;1.63;;;23.20;59.00;;;;;;5074155;28;20457;-85
2023/12/16 10:03:37;;;;;;;1.43;1.13;;;23.20;58.90;;;;;;5074224;28;20871;-86
2023/12/16 10:06:06;;;;;;;5.07;1.80;;;23.20;58.90;;;;;;5074685;28;20437;-88
2023/12/16 10:08:34;;;;;;;7.20;1.40;;;23.30;58.90;;;;;;5066304;28;20463;-91
2023/12/16 10:11:03;;;;;;;1.73;1.43;;;23.30;58.90;;;;;;5055536;28;20536;-88
2023/12/16 10:13:31;;;;;;;1.87;1.33;;;23.30;58.90;;;;;;5055505;28;20943;-91
2023/12/16 10:15:58;;;;;;;1.90;1.20;;;23.30;58.80;;;;;;5055278;28;20558;-88
2023/12/16 10:18:26;;;;;;;3.13;1.40;;;23.30;58.90;;;;;;5055106;28;20491;-88
2023/12/16 10:20:55;;;;;;;2.97;1.37;;;23.30;58.90;;;;;;5055121;28;20433;-87
2023/12/16 10:23:23;;;;;;;1.93;1.33;;;23.30;58.90;;;;;;5054867;28;20448;-89
2023/12/16 10:25:51;;;;;;;1.40;1.20;;;23.30;58.80;;;;;;5054908;28;20528;-87
2023/12/16 10:28:18;;;;;;;2.27;1.07;;;23.30;58.90;;;;;;5054952;28;20438;-87
2023/12/16 10:30:45;;;;;;;1.73;1.20;;;23.30;58.90;;;;;;5055002;28;20445;-87
2023/12/16 10:33:13;;;;;;;2.50;1.23;;;23.30;58.90;;;;;;5054707;28;20511;-87
2023/12/16 10:35:42;;;;;;;7.87;1.30;;;23.50;59.10;;;;;;5054708;28;20441;-87
2023/12/16 10:38:11;;;;;;;1.60;1.33;;;23.40;59.60;;;;;;5054698;28;20995;-85
2023/12/16 10:40:38;;;;;;;1.73;1.30;;;23.30;58.90;;;;;;5054604;28;20920;-90
2023/12/16 10:43:08;;;;;;;2.03;1.53;;;23.30;59.50;;;;;;5054316;28;20437;-85
2023/12/16 10:45:35;;;;;;;1.30;1.00;;;23.30;59.00;;;;;;5055095;28;20441;-85
2023/12/16 10:48:05;;;;;;;1.40;1.20;;;23.20;58.90;;;;;;5054310;28;20936;-85
2023/12/16 10:50:33;;;;;;;2.80;1.80;;;23.20;58.90;;;;;;5055045;28;20430;-88
2023/12/16 10:53:03;;;;;;;1.70;1.60;;;23.20;59.50;;;;;;5055474;28;20536;-84
2023/12/16 10:55:33;;;;;;;2.90;1.87;;;23.10;58.40;;;;;;5055565;28;20446;-86
2023/12/16 10:58:11;;;;;;;2.17;1.20;;;23.10;58.90;;;;;;5054789;28;20492;-85
2023/12/16 11:00:41;;;;;;;4.03;1.47;;;23.10;59.50;;;;;;5054815;28;20437;-85
2023/12/16 11:03:16;;;;;;;2.43;1.60;;;23.10;59.00;;;;;;5053998;28;20456;-84
2023/12/16 11:05:51;;;;;;;3.20;1.63;;;23.10;59.00;;;;;;5054716;28;20432;-85
2023/12/16 11:08:18;;;;;;;1.93;1.40;;;23.20;59.10;;;;;;5054951;28;20857;-85
2023/12/16 11:10:45;;;;;;;1.50;1.40;;;23.20;59.10;;;;;;5054525;28;20461;-85
2023/12/16 11:13:15;;;;;;;1.70;1.27;;;23.20;59.10;;;;;;5054735;28;20472;-85
2023/12/16 11:15:42;;;;;;;2.90;1.50;;;23.20;59.10;;;;;;5054551;28;20452;-84
2023/12/16 11:18:16;;;;;;;3.77;1.90;;;23.20;59.20;;;;;;5054231;28;20489;-85
2023/12/16 11:20:48;;;;;;;5.10;2.03;;;23.20;59.20;;;;;;5054575;28;20490;-85
2023/12/16 11:23:16;;;;;;;4.30;1.40;;;23.20;59.70;;;;;;5054841;28;20444;-85
2023/12/16 11:25:43;;;;;;;2.70;1.83;;;23.20;59.70;;;;;;5054347;28;20433;-85
2023/12/16 11:28:14;;;;;;;9.03;2.23;;;23.20;60.00;;;;;;5054851;28;20433;-87
2023/12/16 11:30:42;;;;;;;2.97;2.17;;;23.20;60.10;;;;;;5056051;28;20429;-91
2023/12/16 11:33:09;;;;;;;3.83;2.23;;;23.20;60.50;;;;;;5054667;28;20461;-85
2023/12/16 11:35:48;;;;;;;5.00;2.77;;;23.30;60.50;;;;;;5053642;28;20520;-86
2023/12/16 11:38:42;;;;;;;5.00;2.30;;;23.30;60.40;;;;;;5053686;28;20919;-86
2023/12/16 11:41:12;;;;;;;6.00;2.33;;;23.30;60.40;;;;;;5053758;28;20441;-90
2023/12/16 11:43:52;;;;;;;4.03;1.90;;;23.40;60.40;;;;;;5053424;28;20429;-85
2023/12/16 11:46:39;;;;;;;4.40;2.10;;;23.30;60.20;;;;;;5053379;28;20440;-88
2023/12/16 11:49:10;;;;;;;3.50;2.03;;;23.30;60.20;;;;;;5053554;28;20442;-89
2023/12/16 11:51:38;;;;;;;5.07;2.43;;;23.30;61.00;;;;;;5053570;28;20444;-86
2023/12/16 11:54:06;;;;;;;4.30;2.10;;;23.30;60.00;;;;;;5053152;28;20491;-86
2023/12/16 11:56:33;;;;;;;2.63;2.30;;;23.30;59.90;;;;;;5053523;28;20528;-88
2023/12/16 11:59:00;;;;;;;4.23;1.70;;;23.30;59.90;;;;;;5053449;28;20487;-85
2023/12/16 12:01:27;;;;;;;5.37;1.90;;;23.30;60.00;;;;;;5053037;28;20540;-85
2023/12/16 12:03:56;;;;;;;2.00;1.80;;;23.30;59.80;;;;;;5052964;28;20484;-85
2023/12/16 12:06:24;;;;;;;3.20;1.93;;;23.30;59.70;;;;;;5052904;28;20820;-88
2023/12/16 12:08:50;;;;;;;2.87;1.80;;;23.30;59.70;;;;;;5053332;28;20440;-85
2023/12/16 12:11:18;;;;;;;3.27;1.73;;;23.20;59.60;;;;;;5053382;28;20443;-86
2023/12/16 12:13:45;;;;;;;2.77;1.90;;;23.30;59.70;;;;;;5053562;28;20462;-85
2023/12/16 12:16:14;;;;;;;3.20;2.27;;;23.30;59.70;;;;;;5057518;28;20452;-91
2023/12/16 12:18:42;;;;;;;2.73;2.23;;;23.20;59.70;;;;;;5057457;28;20485;-86
2023/12/16 12:21:10;;;;;;;3.00;2.07;;;23.20;59.70;;;;;;5057111;28;20448;-85
2023/12/16 12:23:38;;;;;;;3.00;1.90;;;23.20;59.60;;;;;;5057271;28;20433;-85
2023/12/16 12:26:05;;;;;;;2.70;2.00;;;23.20;59.60;;;;;;5057146;28;20443;-86
2023/12/16 12:28:33;;;;;;;4.23;1.60;;;23.20;59.70;;;;;;5057574;28;20524;-85
2023/12/16 12:31:04;;;;;;;5.33;2.30;;;23.30;59.80;;;;;;5056948;28;20441;-86
2023/12/16 12:33:32;;;;;;;4.47;1.70;;;23.20;59.70;;;;;;5056902;28;20489;-85
2023/12/16 12:35:58;;;;;;;2.70;1.90;;;23.20;59.70;;;;;;5056912;28;20520;-91
2023/12/16 12:38:28;;;;;;;3.87;1.83;;;23.20;59.70;;;;;;5056964;28;20563;-87
2023/12/16 12:41:03;;;;;;;2.77;1.83;;;23.20;59.60;;;;;;5056835;28;20433;-85
2023/12/16 12:43:31;;;;;;;3.30;1.87;;;23.20;59.60;;;;;;5056636;28;20828;-84
2023/12/16 12:46:07;;;;;;;5.97;2.00;;;23.20;59.60;;;;;;5056736;28;20437;-85
2023/12/16 12:48:34;;;;;;;2.60;1.40;;;23.20;59.50;;;;;;5056570;28;20932;-85
2023/12/16 12:51:06;;;;;;;3.60;1.90;;;23.10;59.50;;;;;;5056836;28;20464;-88